Stations météo

réclame
Mon MeteoGroup
Desenzano, Italie (16089): Température de l'air & dewpoint: 08.08.2018 19:00:00 - 14.08.2018 19:00:00 (CEST)Desenzano, Italie (16089): Vitesse du vent: 08.08.2018 19:00:00 - 14.08.2018 19:00:00 (CEST)Desenzano, Italie (16089): Direction du vent: 08.08.2018 19:00:00 - 14.08.2018 19:00:00 (CEST)Desenzano, Italie (16089): reduced air pressure: 08.08.2018 19:00:00 - 14.08.2018 19:00:00 (CEST)Desenzano, Italie (16089): Quantités de précipitations: 08.08.2018 19:00:00 - 14.08.2018 19:00:00 (CEST)
Date & Time tt [°C] td [°C] ff [km/h] ff [knt] dd ppp [hPa] rr [mm]
14.08.2018 19:00:00 - - - - - - -
14.08.2018 18:00:00 24,8 24,2 4 2 S 1011,7 -
14.08.2018 17:00:00 24,8 24,7 4 2 SSW 1011,6 -
14.08.2018 16:00:00 24,4 24,0 0 0 N 1011,5 -
14.08.2018 15:00:00 24,7 24,3 0 0 N 1011,9 -
14.08.2018 14:00:00 24,4 24,0 4 2 NE 1011,8 0,0
14.08.2018 13:00:00 24,0 23,9 4 2 E 1012,4 -
14.08.2018 12:00:00 24,0 23,9 0 0 N 1012,5 -
14.08.2018 11:00:00 24,0 23,9 0 0 N 1012,4 -
14.08.2018 10:00:00 23,9 23,8 0 0 N 1011,9 -
14.08.2018 09:00:00 23,7 23,6 0 0 N 1011,7 -
14.08.2018 08:00:00 23,7 23,6 5 3 E 1011,3 0,0
14.08.2018 07:00:00 23,4 23,3 0 0 N 1010,6 -
14.08.2018 06:00:00 23,7 23,6 4 2 SSW 1010,3 -
14.08.2018 05:00:00 24,1 24,0 5 3 NNW 1010,1 -
14.08.2018 04:00:00 24,1 24,0 13 7 NW 1009,9 -
14.08.2018 03:00:00 23,0 22,9 0 0 N 1010,3 -
14.08.2018 02:00:00 22,9 22,8 2 1 S 1010,6 0,0
14.08.2018 01:00:00 23,2 23,1 0 0 N 1010,6 -
14.08.2018 00:00:00 23,6 23,5 2 1 SSW 1010,8 -
13.08.2018 23:00:00 23,5 23,4 4 2 SSW 1010,6 -
13.08.2018 22:00:00 23,6 23,5 11 6 SW 1010,5 -
13.08.2018 21:00:00 23,9 22,3 8 4 S 1009,9 -
13.08.2018 20:00:00 25,8 20,3 8 4 SW 1009,3 0,0
13.08.2018 19:00:00 27,3 20,6 5 3 SW 1009,4 -
13.08.2018 18:00:00 28,3 20,5 11 6 SW 1009,3 -
13.08.2018 17:00:00 29,7 18,8 5 3 SW 1009,9 -
13.08.2018 16:00:00 30,7 20,0 9 5 SSW 1010,5 -
13.08.2018 15:00:00 30,8 20,4 9 5 S 1010,9 -
13.08.2018 14:00:00 30,2 20,4 4 2 WNW 1011,5 0,0
13.08.2018 13:00:00 28,2 23,3 8 4 NNW 1012,2 -
13.08.2018 12:00:00 27,4 22,5 8 4 WNW 1012,7 -
13.08.2018 11:00:00 26,7 22,1 9 5 N 1013,1 -
13.08.2018 10:00:00 26,4 22,2 9 5 NNW 1013,4 -
13.08.2018 09:00:00 25,8 21,8 11 6 NW 1013,5 -
13.08.2018 08:00:00 25,6 22,8 13 7 NW 1013,2 0,0
13.08.2018 07:00:00 25,3 21,5 9 5 WNW 1012,8 -
13.08.2018 06:00:00 25,6 22,0 9 5 NW 1013,2 -
13.08.2018 05:00:00 25,6 22,0 9 5 WNW 1013,2 -
13.08.2018 04:00:00 25,9 22,1 9 5 NW 1013,2 -
13.08.2018 03:00:00 25,9 22,3 11 6 WNW 1013,7 -
13.08.2018 02:00:00 26,1 23,1 13 7 NW 1014,4 0,0
13.08.2018 01:00:00 25,7 23,5 8 4 WNW 1014,8 -
13.08.2018 00:00:00 25,5 21,5 0 0 N 1014,7 -
12.08.2018 23:00:00 26,0 21,2 0 0 N 1014,6 -
12.08.2018 22:00:00 26,5 21,0 0 0 N 1014,7 -
12.08.2018 21:00:00 27,0 21,5 2 1 NW 1014,3 -
12.08.2018 20:00:00 26,9 20,0 4 2 WSW 1014,4 0,0
12.08.2018 19:00:00 28,7 20,1 9 5 SSW 1015,2 -
12.08.2018 18:00:00 29,5 18,6 2 1 N 1014,8 -
12.08.2018 17:00:00 30,1 19,1 9 5 ENE 1015,1 -
12.08.2018 16:00:00 30,5 20,1 8 4 ENE 1015,8 -
12.08.2018 15:00:00 30,4 20,6 8 4 WNW 1016,2 -
12.08.2018 14:00:00 30,2 20,4 11 6 E 1016,9 0,0
12.08.2018 13:00:00 29,6 19,6 15 8 E 1017,7 -
12.08.2018 12:00:00 28,1 20,8 9 5 NNW 1017,9 -
12.08.2018 11:00:00 27,4 22,3 9 5 NW 1018,1 -
12.08.2018 10:00:00 26,9 22,5 4 2 NW 1018,0 -
12.08.2018 09:00:00 26,4 22,6 0 0 N 1017,9 -
12.08.2018 08:00:00 26,0 23,0 4 2 NW 1017,8 0,0
12.08.2018 07:00:00 25,8 23,2 13 7 N 1017,4 -
12.08.2018 06:00:00 25,9 23,7 11 6 NNW 1017,1 -
12.08.2018 05:00:00 25,5 20,7 0 0 N 1017,2 -
12.08.2018 04:00:00 26,2 21,1 5 3 ENE 1017,4 -
12.08.2018 03:00:00 25,7 23,5 8 4 ENE 1017,4 -
12.08.2018 02:00:00 25,7 21,3 0 0 N 1017,7 0,0
12.08.2018 01:00:00 25,8 21,2 4 2 E 1017,6 -
12.08.2018 00:00:00 25,8 21,6 0 0 N 1017,4 -
11.08.2018 23:00:00 26,4 22,0 0 0 N 1016,9 -
11.08.2018 22:00:00 26,7 22,7 0 0 N 1016,3 -
11.08.2018 21:00:00 27,4 23,0 0 0 N 1015,5 -
11.08.2018 20:00:00 28,5 24,9 0 0 N 1015,0 0,0
11.08.2018 19:00:00 28,4 25,0 4 2 NNE 1015,5 -
11.08.2018 18:00:00 28,3 24,5 5 3 N 1015,6 -
11.08.2018 17:00:00 28,3 24,5 9 5 N 1016,0 -
11.08.2018 16:00:00 28,8 23,7 13 7 N 1016,0 -
11.08.2018 15:00:00 31,1 21,5 2 1 WSW 1016,5 -
11.08.2018 14:00:00 30,9 22,7 5 3 E 1016,9 0,0
11.08.2018 13:00:00 28,4 22,1 5 3 NNW 1017,7 -
11.08.2018 12:00:00 27,5 22,8 8 4 NNW 1018,2 -
11.08.2018 11:00:00 26,8 22,4 21 11 NNW 1018,3 -
11.08.2018 10:00:00 26,4 21,6 21 11 NNW 1018,3 -
11.08.2018 09:00:00 26,1 21,7 28 15 NNW 1018,2 -
11.08.2018 08:00:00 26,1 22,9 22 12 NNW 1018,1 0,0
11.08.2018 07:00:00 25,8 23,0 22 12 NW 1017,8 -
11.08.2018 06:00:00 25,8 22,6 8 4 WNW 1017,6 -
11.08.2018 05:00:00 25,9 22,9 13 7 NW 1017,6 -
11.08.2018 04:00:00 26,2 23,6 15 8 NW 1017,8 -
11.08.2018 03:00:00 26,2 23,8 11 6 NW 1018,0 -
11.08.2018 02:00:00 25,9 23,9 2 1 WNW 1018,1 0,0
11.08.2018 01:00:00 26,0 23,6 4 2 NNW 1018,2 -
11.08.2018 00:00:00 26,2 22,2 0 0 N 1018,0 -
10.08.2018 23:00:00 26,6 21,3 4 2 S 1017,8 -
10.08.2018 22:00:00 27,3 21,1 2 1 S 1017,7 -
10.08.2018 21:00:00 28,2 20,9 2 1 S 1017,2 -
10.08.2018 20:00:00 29,2 21,1 4 2 SW 1016,8 0,0
10.08.2018 19:00:00 29,7 21,1 4 2 SW 1016,7 -
10.08.2018 18:00:00 29,9 20,4 8 4 ESE 1016,9 -
10.08.2018 17:00:00 30,3 20,8 5 3 SSW 1017,2 -
10.08.2018 16:00:00 30,6 20,8 9 5 SSW 1017,7 -
10.08.2018 15:00:00 29,1 21,0 4 2 WSW 1018,2 -
10.08.2018 14:00:00 27,5 22,6 5 3 NE 1018,8 0,0
10.08.2018 13:00:00 27,7 22,4 9 5 NNE 1018,9 -
10.08.2018 12:00:00 27,1 22,2 8 4 N 1019,1 -
10.08.2018 11:00:00 26,9 22,3 4 2 N 1019,2 -
10.08.2018 10:00:00 26,3 21,9 0 0 N 1018,9 -
10.08.2018 09:00:00 25,4 22,0 8 4 WNW 1018,7 -
10.08.2018 08:00:00 25,1 22,1 9 5 NW 1018,0 0,0
10.08.2018 07:00:00 25,1 21,9 8 4 NW 1017,6 -
10.08.2018 06:00:00 25,0 22,0 9 5 NNW 1017,3 -
10.08.2018 05:00:00 24,9 22,3 13 7 NW 1017,0 -
10.08.2018 04:00:00 24,6 22,0 11 6 NW 1017,1 -
10.08.2018 03:00:00 24,6 22,4 2 1 W 1017,4 -
10.08.2018 02:00:00 25,3 21,9 5 3 WNW 1017,7 0,0
10.08.2018 01:00:00 25,4 22,4 22 12 N 1017,7 -
10.08.2018 00:00:00 25,5 21,1 18 10 NNW 1017,6 -
09.08.2018 23:00:00 25,4 22,4 31 17 NNW 1017,4 -
09.08.2018 22:00:00 23,8 23,2 24 13 NW 1017,8 -
09.08.2018 21:00:00 23,4 21,1 11 6 N 1018,1 -
09.08.2018 20:00:00 29,0 23,2 5 3 NNE 1014,7 0,0
09.08.2018 19:00:00 29,2 24,0 15 8 ENE 1014,4 -
09.08.2018 18:00:00 29,6 24,4 11 6 NNE 1014,1 -
09.08.2018 17:00:00 32,7 22,8 4 2 SE 1013,8 -
09.08.2018 16:00:00 31,3 22,8 2 1 S 1014,4 -
09.08.2018 15:00:00 28,8 25,0 5 3 N 1014,9 -
09.08.2018 14:00:00 28,9 25,1 8 4 NNE 1015,4 0,0
09.08.2018 13:00:00 28,5 23,6 8 4 NNE 1016,0 -
09.08.2018 12:00:00 28,5 22,2 4 2 NW 1016,3 -
09.08.2018 11:00:00 27,6 21,6 4 2 N 1016,4 -
09.08.2018 10:00:00 27,0 23,0 15 8 NNW 1016,4 -
09.08.2018 09:00:00 26,5 23,1 18 10 NNW 1016,3 -
09.08.2018 08:00:00 26,4 23,4 26 14 NNW 1016,0 0,0
09.08.2018 07:00:00 26,4 23,4 16 9 NW 1015,6 -
09.08.2018 06:00:00 26,4 23,0 11 6 NNW 1015,4 -
09.08.2018 05:00:00 26,7 23,1 9 5 NNW 1015,1 -
09.08.2018 04:00:00 26,8 23,2 16 9 NNW 1015,2 -
09.08.2018 03:00:00 26,9 24,5 18 10 NNW 1015,4 -
09.08.2018 02:00:00 27,1 24,7 15 8 NNW 1015,2 0,0
09.08.2018 01:00:00 27,4 24,2 5 3 NNE 1014,9 -
09.08.2018 00:00:00 27,0 23,4 0 0 N 1015,1 -
08.08.2018 23:00:00 27,1 22,7 0 0 N 1014,9 -
08.08.2018 22:00:00 28,0 23,5 4 2 NNE 1014,6 -
08.08.2018 21:00:00 28,7 21,9 4 2 N 1014,3 -
08.08.2018 20:00:00 28,8 19,7 9 5 E 1014,2 0,0
08.08.2018 19:00:00 29,4 21,6 13 7 ENE 1013,6 -

tt = Température de l'air
td = dewpoint
ff = Vitesse du vent
dd = Direction du vent
ppp = reduced air pressure
rr = Quantités de précipitations

stations d'obs. à proximité